Terminal Aerodrome Forecast
Issued by NWS

Home | Current Version | Previous Version | Text Only | Print | Product List | Glossary On
Versions: 1 2 3 4 5 6 7 8 9 10 11 12 13 14 15 16 17
595
FTUS43 KILX 261724
TAFBMI
TAF
KBMI 261724Z 2618/2718 18008KT P6SM SCT060 SCT120
     FM270000 18005KT P6SM VCTS SCT050CB BKN200
      TEMPO 2702/2705 4SM TSRA BR BKN050CB
     FM270500 16004KT P6SM VCTS OVC050CB
     FM271200 22005KT 5SM -SHRA BR OVC020
     FM271400 29005KT 6SM -SHRA BR OVC015=

USA.gov is the U.S. government's official web portal to all federal, state and local government web resources and services.